createdAt,value
2022-08-08T00:00:52.596Z,96499.77
2022-08-08T00:03:31.429Z,96500.13
2022-08-08T00:06:28.335Z,96498.55
2022-08-08T00:09:25.362Z,96499.52
2022-08-08T00:16:11.724Z,96498.66
2022-08-08T00:25:59.401Z,96499.65
2022-08-08T00:28:37.020Z,96499.09
2022-08-08T00:32:20.780Z,96498.49
2022-08-08T00:35:30.361Z,96498.02
2022-08-08T00:38:31.404Z,96502.87
2022-08-08T00:41:22.017Z,96502.36
2022-08-08T00:44:12.180Z,96502.94
2022-08-08T00:47:23.069Z,96501.52
2022-08-08T00:50:12.366Z,96504.76
2022-08-08T00:53:16.131Z,96502.98
2022-08-08T00:56:35.141Z,96502.42
2022-08-08T00:59:43.799Z,96501.13
2022-08-08T01:06:52.285Z,96499.27
2022-08-08T01:09:52.106Z,96500.83
2022-08-08T01:12:42.302Z,96502.38
2022-08-08T01:15:44.204Z,96504.00
2022-08-08T01:19:02.720Z,96500.27
2022-08-08T01:22:12.607Z,96498.56
2022-08-08T01:25:40.193Z,96493.65
2022-08-08T01:28:32.482Z,96494.54
2022-08-08T01:35:29.757Z,96491.28
2022-08-08T01:38:07.071Z,96494.45
2022-08-08T01:41:01.126Z,96497.27
2022-08-08T01:44:18.485Z,96495.92
2022-08-08T01:48:15.542Z,96496.85
2022-08-08T01:50:29.865Z,96494.25
2022-08-08T01:55:45.986Z,96495.59
2022-08-08T01:57:17.690Z,96491.08
2022-08-08T02:00:01.998Z,96488.36
2022-08-08T02:02:57.466Z,96489.42
2022-08-08T02:05:56.485Z,96491.17
2022-08-08T02:09:17.436Z,96488.48
2022-08-08T02:11:58.984Z,96489.39
2022-08-08T02:14:55.848Z,96489.55
2022-08-08T02:18:05.543Z,96491.30
2022-08-08T02:21:18.099Z,96496.51
2022-08-08T02:24:34.116Z,96501.93
2022-08-08T02:27:27.327Z,96504.96
2022-08-08T02:30:24.763Z,96503.98
2022-08-08T02:34:00.087Z,96504.80
2022-08-08T02:36:39.648Z,96508.53
2022-08-08T02:39:42.557Z,96509.17
2022-08-08T02:44:34.948Z,96504.97
2022-08-08T02:46:23.679Z,96504.26
2022-08-08T02:49:47.835Z,96507.48
2022-08-08T02:52:35.384Z,96508.75
2022-08-08T02:55:37.775Z,96508.89
2022-08-08T02:58:28.378Z,96515.97
2022-08-08T03:01:47.235Z,96516.32
2022-08-08T03:05:03.479Z,96516.80
2022-08-08T03:07:57.742Z,96515.79
2022-08-08T03:10:53.860Z,96517.91
2022-08-08T03:15:59.173Z,96515.15
2022-08-08T03:16:54.255Z,96517.89
2022-08-08T03:19:38.553Z,96518.85
2022-08-08T03:22:38.502Z,96523.06
2022-08-08T03:24:56.838Z,96525.11
2022-08-08T03:27:35.824Z,96523.59
2022-08-08T03:30:19.071Z,96528.82
2022-08-08T03:33:54.880Z,96529.71
2022-08-08T03:36:01.166Z,96533.42
2022-08-08T03:38:56.191Z,96529.30
2022-08-08T03:42:13.340Z,96534.00
2022-08-08T03:44:08.032Z,96536.55
2022-08-08T03:46:48.634Z,96534.29
2022-08-08T03:49:58.928Z,96527.83
2022-08-08T03:52:12.826Z,96522.88
2022-08-08T03:55:02.323Z,96530.73
2022-08-08T03:58:34.328Z,96540.06
2022-08-08T04:00:26.927Z,96534.10
2022-08-08T04:03:11.634Z,96535.23
2022-08-08T04:05:49.595Z,96539.23
2022-08-08T04:08:33.860Z,96541.48
2022-08-08T04:11:11.363Z,96538.78
2022-08-08T04:14:33.065Z,96538.42
2022-08-08T04:16:40.349Z,96540.19
2022-08-08T04:19:23.287Z,96546.58
2022-08-08T04:21:54.169Z,96552.64
2022-08-08T04:24:29.357Z,96550.61
2022-08-08T04:27:00.595Z,96551.89
2022-08-08T04:29:33.298Z,96548.98
2022-08-08T04:32:10.591Z,96553.67
2022-08-08T04:34:49.277Z,96555.03
2022-08-08T04:37:31.629Z,96556.23
2022-08-08T04:40:10.517Z,96560.16
2022-08-08T04:42:57.281Z,96564.45
2022-08-08T04:45:46.377Z,96561.91
2022-08-08T04:48:15.463Z,96561.35
2022-08-08T04:50:45.951Z,96560.11
2022-08-08T04:54:27.144Z,96563.93
2022-08-08T04:56:07.846Z,96571.42
2022-08-08T04:58:37.193Z,96567.90
2022-08-08T05:01:11.012Z,96565.22
2022-08-08T05:04:10.457Z,96570.41
2022-08-08T05:06:39.297Z,96578.27
2022-08-08T05:09:09.069Z,96578.52
2022-08-08T05:11:41.130Z,96586.19
2022-08-08T05:14:14.937Z,96589.02
2022-08-08T05:17:00.596Z,96592.79
2022-08-08T05:20:10.667Z,96591.70
2022-08-08T05:22:32.688Z,96596.77
2022-08-08T05:25:02.970Z,96601.42
2022-08-08T05:27:33.180Z,96600.76
2022-08-08T05:30:03.815Z,96596.52
2022-08-08T05:32:50.952Z,96595.59
2022-08-08T05:35:24.019Z,96598.14
2022-08-08T05:38:30.600Z,96603.25
2022-08-08T05:41:02.410Z,96600.63
2022-08-08T05:43:39.154Z,96595.85
2022-08-08T05:46:10.545Z,96600.08
2022-08-08T05:48:41.886Z,96595.86
2022-08-08T05:51:15.094Z,96597.39
2022-08-08T05:54:25.661Z,96595.19
2022-08-08T05:56:47.609Z,96591.13
2022-08-08T05:59:59.053Z,96590.70
2022-08-08T06:02:43.513Z,96589.19
2022-08-08T06:05:35.474Z,96590.72
2022-08-08T06:08:28.209Z,96585.42
2022-08-08T06:11:05.203Z,96589.52
2022-08-08T06:13:36.149Z,96589.98
2022-08-08T06:16:19.178Z,96588.27
2022-08-08T06:18:55.370Z,96586.84
2022-08-08T06:21:32.541Z,96589.91
2022-08-08T06:24:30.251Z,96595.66
2022-08-08T06:27:06.271Z,96599.15
2022-08-08T06:30:00.094Z,96598.19
2022-08-08T06:32:50.206Z,96592.24
2022-08-08T06:36:06.220Z,96596.19
2022-08-08T06:38:17.446Z,96593.33
2022-08-08T06:40:54.338Z,96596.27
2022-08-08T06:43:57.506Z,96596.45
2022-08-08T06:46:30.986Z,96602.84
2022-08-08T06:49:00.995Z,96603.84
2022-08-08T06:51:46.639Z,96607.27
2022-08-08T06:54:20.258Z,96607.35
2022-08-08T06:56:52.728Z,96603.08
2022-08-08T06:59:21.623Z,96601.05
2022-08-08T07:02:26.877Z,96598.29
2022-08-08T07:04:55.825Z,96600.69
2022-08-08T07:07:57.191Z,96602.77
2022-08-08T07:10:35.525Z,96607.02
2022-08-08T07:13:09.547Z,96604.21
2022-08-08T07:16:04.370Z,96609.08
2022-08-08T07:18:55.909Z,96610.42
2022-08-08T07:21:32.147Z,96602.88
2022-08-08T07:24:17.776Z,96603.57
2022-08-08T07:26:53.286Z,96606.35
2022-08-08T07:30:01.685Z,96603.37
2022-08-08T07:32:15.789Z,96608.27
2022-08-08T07:34:59.319Z,96610.23
2022-08-08T07:37:55.772Z,96613.70
2022-08-08T07:40:29.174Z,96612.23
2022-08-08T07:43:01.389Z,96606.17
2022-08-08T07:45:34.320Z,96610.13
2022-08-08T07:48:05.123Z,96609.48
2022-08-08T07:50:35.015Z,96609.85
2022-08-08T07:54:01.550Z,96608.88
2022-08-08T07:56:55.538Z,96611.80
2022-08-08T07:59:27.217Z,96609.81
2022-08-08T08:02:35.000Z,96607.11
2022-08-08T08:05:03.703Z,96612.25
2022-08-08T08:07:37.798Z,96610.60
2022-08-08T08:10:13.287Z,96607.50
2022-08-08T08:12:54.209Z,96610.77
2022-08-08T08:15:31.804Z,96611.80
2022-08-08T08:18:05.951Z,96608.02
2022-08-08T08:20:44.474Z,96605.79
2022-08-08T08:23:14.550Z,96606.23
2022-08-08T08:25:56.721Z,96604.15
2022-08-08T08:28:26.974Z,96605.28
2022-08-08T08:31:05.054Z,96603.83
2022-08-08T08:33:36.150Z,96601.36
2022-08-08T08:36:20.026Z,96600.50
2022-08-08T08:38:52.210Z,96599.69
2022-08-08T08:41:30.979Z,96597.48
2022-08-08T08:44:13.694Z,96601.27
2022-08-08T08:46:47.438Z,96597.77
2022-08-08T08:49:19.925Z,96599.25
2022-08-08T08:51:54.363Z,96593.63
2022-08-08T08:54:25.752Z,96592.31
2022-08-08T08:56:56.409Z,96586.79
2022-08-08T08:59:58.757Z,96589.13
2022-08-08T09:02:21.835Z,96585.77
2022-08-08T09:04:59.489Z,96588.79
2022-08-08T09:07:38.985Z,96589.96
2022-08-08T09:10:23.503Z,96595.73
2022-08-08T09:13:00.617Z,96594.70
2022-08-08T09:15:40.894Z,96589.13
2022-08-08T09:18:13.125Z,96586.50
2022-08-08T09:21:59.988Z,96583.82
2022-08-08T09:23:40.673Z,96578.23
2022-08-08T09:26:32.279Z,96577.63
2022-08-08T09:29:08.195Z,96581.42
2022-08-08T09:32:19.607Z,96592.66
2022-08-08T09:34:51.656Z,96593.32
2022-08-08T09:37:59.345Z,96594.11
2022-08-08T09:40:21.327Z,96590.91
2022-08-08T09:43:16.400Z,96587.23
2022-08-08T09:46:06.628Z,96582.90
2022-08-08T09:48:46.422Z,96579.38
2022-08-08T09:51:26.843Z,96583.05
2022-08-08T09:54:08.366Z,96583.34
2022-08-08T09:56:45.362Z,96582.78
2022-08-08T10:02:29.305Z,96580.51
2022-08-08T10:05:23.036Z,96581.16
2022-08-08T10:08:00.075Z,96576.58
2022-08-08T10:10:33.912Z,96576.69
2022-08-08T10:13:35.533Z,96574.52
2022-08-08T10:16:05.178Z,96568.25
2022-08-08T10:18:36.592Z,96566.73
2022-08-08T10:21:25.713Z,96566.83
2022-08-08T10:24:03.354Z,96568.43
2022-08-08T10:26:57.438Z,96568.02
2022-08-08T10:29:58.829Z,96567.71
2022-08-08T10:32:38.259Z,96563.73
2022-08-08T10:36:01.905Z,96565.92
2022-08-08T10:38:07.868Z,96573.70
2022-08-08T10:40:39.309Z,96583.35
2022-08-08T10:43:09.901Z,96589.98
2022-08-08T10:45:55.068Z,96584.30
2022-08-08T10:48:55.841Z,96582.42
2022-08-08T10:51:26.092Z,96585.28
2022-08-08T10:53:58.300Z,96586.51
2022-08-08T10:56:34.682Z,96580.14
2022-08-08T10:59:14.136Z,96576.30
2022-08-08T11:01:54.342Z,96569.21
2022-08-08T11:04:29.575Z,96560.57
2022-08-08T11:07:01.326Z,96561.20
2022-08-08T11:09:32.213Z,96561.77
2022-08-08T11:12:13.140Z,96562.27
2022-08-08T11:15:00.816Z,96563.05
2022-08-08T11:17:59.718Z,96564.86
2022-08-08T11:20:27.278Z,96571.02
2022-08-08T11:23:05.697Z,96567.55
2022-08-08T11:25:52.963Z,96565.86
2022-08-08T11:28:30.524Z,96565.76
2022-08-08T11:31:03.651Z,96564.30
2022-08-08T11:33:52.387Z,96567.64
2022-08-08T11:36:27.569Z,96573.46
2022-08-08T11:38:57.367Z,96579.84
2022-08-08T11:41:33.647Z,96586.26
2022-08-08T11:44:05.525Z,96588.91
2022-08-08T11:46:34.948Z,96594.46
2022-08-08T11:49:09.260Z,96595.98
2022-08-08T11:51:49.914Z,96593.02
2022-08-08T11:54:33.954Z,96587.96
2022-08-08T11:57:17.330Z,96586.53
2022-08-08T12:00:00.587Z,96595.68
2022-08-08T12:02:51.479Z,96597.66
2022-08-08T12:05:33.659Z,96598.81
2022-08-08T12:08:04.383Z,96600.17
2022-08-08T12:10:34.487Z,96594.40
2022-08-08T12:13:12.382Z,96589.68
2022-08-08T12:15:49.401Z,96588.86
2022-08-08T12:18:24.458Z,96594.59
2022-08-08T12:20:55.394Z,96600.61
2022-08-08T12:23:30.631Z,96597.50
2022-08-08T12:26:17.155Z,96596.69
2022-08-08T12:28:59.699Z,96592.65
2022-08-08T12:31:39.210Z,96597.37
2022-08-08T12:34:38.016Z,96605.25
2022-08-08T12:37:11.264Z,96612.44
2022-08-08T12:40:00.722Z,96612.15
2022-08-08T12:42:32.967Z,96618.91
2022-08-08T12:45:58.297Z,96615.86
2022-08-08T12:48:09.747Z,96620.88
2022-08-08T12:50:49.594Z,96614.56
2022-08-08T12:53:30.251Z,96609.98
2022-08-08T12:56:19.392Z,96604.63
2022-08-08T12:58:54.575Z,96601.65
2022-08-08T13:01:37.750Z,96595.09
2022-08-08T13:04:18.342Z,96591.61
2022-08-08T13:06:55.179Z,96581.89
2022-08-08T13:09:43.045Z,96575.52
2022-08-08T13:12:30.753Z,96572.66
2022-08-08T13:15:06.076Z,96565.49
2022-08-08T13:18:09.287Z,96557.14
2022-08-08T13:20:27.097Z,96551.88
2022-08-08T13:23:29.924Z,96545.35
2022-08-08T13:25:50.150Z,96544.51
2022-08-08T13:28:32.106Z,96539.50
2022-08-08T13:31:05.346Z,96535.91
2022-08-08T13:33:42.103Z,96529.64
2022-08-08T13:36:12.092Z,96526.65
2022-08-08T13:38:40.865Z,96525.88
2022-08-08T13:41:16.065Z,96527.95
2022-08-08T13:43:49.920Z,96523.35
2022-08-08T13:46:28.703Z,96525.89
2022-08-08T13:49:11.487Z,96527.79
2022-08-08T13:51:57.243Z,96535.96
2022-08-08T13:54:29.560Z,96541.57
2022-08-08T13:57:12.822Z,96549.80
2022-08-08T13:59:48.533Z,96554.16
2022-08-08T14:02:23.468Z,96565.40
2022-08-08T14:05:04.845Z,96570.44
2022-08-08T14:07:52.579Z,96574.88
2022-08-08T14:10:32.959Z,96579.18
2022-08-08T14:13:30.293Z,96579.70
2022-08-08T14:16:16.041Z,96584.42
2022-08-08T14:18:57.779Z,96588.64
2022-08-08T14:21:48.829Z,96599.56
2022-08-08T14:24:34.433Z,96601.63
2022-08-08T14:27:07.683Z,96605.04
2022-08-08T14:29:39.510Z,96607.84
2022-08-08T14:32:17.081Z,96609.42
2022-08-08T14:34:56.177Z,96613.61
2022-08-08T14:37:27.918Z,96607.48
2022-08-08T14:40:05.633Z,96605.77
2022-08-08T14:42:55.378Z,96600.27
2022-08-08T14:45:33.247Z,96596.70
2022-08-08T14:48:27.429Z,96588.71
2022-08-08T14:51:07.536Z,96581.69
2022-08-08T14:53:54.527Z,96576.83
2022-08-08T14:56:26.892Z,96574.71
2022-08-08T14:58:57.908Z,96565.58
2022-08-08T15:01:37.391Z,96562.97
2022-08-08T15:04:11.794Z,96557.31
2022-08-08T15:06:42.443Z,96556.22
2022-08-08T15:09:12.786Z,96553.29
2022-08-08T15:11:46.553Z,96551.69
2022-08-08T15:14:25.089Z,96551.73
2022-08-08T15:16:57.051Z,96554.80
2022-08-08T15:19:28.212Z,96558.68
2022-08-08T15:21:57.880Z,96565.67
2022-08-08T15:24:31.367Z,96570.17
2022-08-08T15:27:11.926Z,96573.56
2022-08-08T15:29:49.835Z,96571.13
2022-08-08T15:32:20.866Z,96571.59
2022-08-08T15:34:51.596Z,96572.34
2022-08-08T15:37:19.995Z,96572.39
2022-08-08T15:39:48.695Z,96574.63
2022-08-08T15:42:33.122Z,96575.39
2022-08-08T15:45:02.534Z,96576.75
2022-08-08T15:47:32.158Z,96577.45
2022-08-08T15:50:01.666Z,96582.65
2022-08-08T15:52:31.408Z,96581.52
2022-08-08T15:55:01.872Z,96581.54
2022-08-08T15:57:35.651Z,96588.77
2022-08-08T16:00:27.316Z,96590.70
2022-08-08T16:02:58.025Z,96595.05
2022-08-08T16:05:35.587Z,96598.83
2022-08-08T16:08:19.946Z,96598.05
2022-08-08T16:13:02.012Z,96601.39
2022-08-08T16:13:45.009Z,96600.83
2022-08-08T16:16:18.029Z,96607.70
2022-08-08T16:18:57.254Z,96610.32
2022-08-08T16:21:30.928Z,96617.14
2022-08-08T16:24:03.410Z,96617.21
2022-08-08T16:26:36.313Z,96610.65
2022-08-08T16:29:08.767Z,96606.19
2022-08-08T16:31:44.737Z,96603.16
2022-08-08T16:34:20.815Z,96600.95
2022-08-08T16:36:52.780Z,96602.08
2022-08-08T16:39:49.042Z,96604.15
2022-08-08T16:42:13.913Z,96599.60
2022-08-08T16:44:54.274Z,96597.61
2022-08-08T16:47:40.247Z,96593.10
2022-08-08T16:50:20.173Z,96589.13
2022-08-08T16:55:06.468Z,96583.12
2022-08-08T16:55:56.726Z,96582.63
2022-08-08T16:58:29.457Z,96579.25
2022-08-08T17:01:05.545Z,96580.43
2022-08-08T17:03:58.591Z,96578.15
2022-08-08T17:06:41.738Z,96576.73
2022-08-08T17:09:14.882Z,96579.31
2022-08-08T17:11:49.306Z,96579.40
2022-08-08T17:14:27.212Z,96583.46
2022-08-08T17:17:22.957Z,96586.05
2022-08-08T17:19:55.459Z,96591.48
2022-08-08T17:22:38.917Z,96594.52
2022-08-08T17:25:11.670Z,96600.16
2022-08-08T17:27:46.576Z,96612.67
2022-08-08T17:30:27.443Z,96616.50
2022-08-08T17:34:53.692Z,96619.65
2022-08-08T17:35:56.191Z,96613.83
2022-08-08T17:38:34.543Z,96616.99
2022-08-08T17:41:02.944Z,96618.69
2022-08-08T17:43:32.614Z,96622.55
2022-08-08T17:46:55.726Z,96630.88
2022-08-08T17:49:28.787Z,96632.41
2022-08-08T17:52:11.265Z,96635.42
2022-08-08T17:54:40.982Z,96646.25
2022-08-08T17:57:14.629Z,96663.45
2022-08-08T17:59:45.777Z,96670.80
2022-08-08T18:02:18.605Z,96669.94
2022-08-08T18:04:51.013Z,96673.45
2022-08-08T18:08:03.575Z,96685.85
2022-08-08T18:10:08.147Z,96692.98
2022-08-08T18:12:37.168Z,96692.25
2022-08-08T18:15:07.353Z,96693.08
2022-08-08T18:18:05.407Z,96700.98
2022-08-08T18:20:43.989Z,96706.05
2022-08-08T18:23:15.925Z,96715.58
2022-08-08T18:25:44.924Z,96726.92
2022-08-08T18:28:14.347Z,96733.80
2022-08-08T18:30:43.056Z,96744.85
2022-08-08T18:33:36.933Z,96752.16
2022-08-08T18:36:03.356Z,96760.54
2022-08-08T18:38:34.323Z,96763.63
2022-08-08T18:41:03.306Z,96772.83
2022-08-08T18:43:42.829Z,96772.18
2022-08-08T18:46:56.114Z,96774.36
2022-08-08T18:49:01.028Z,96780.93
2022-08-08T18:51:53.188Z,96780.40
2022-08-08T18:54:22.572Z,96777.39
2022-08-08T18:56:55.455Z,96777.44
2022-08-08T18:59:23.857Z,96768.19
2022-08-08T19:02:25.085Z,96766.89
2022-08-08T19:04:40.685Z,96775.81
2022-08-08T19:07:12.256Z,96778.02
2022-08-08T19:09:48.955Z,96780.95
2022-08-08T19:12:29.593Z,96780.73
2022-08-08T19:14:58.059Z,96785.98
2022-08-08T19:17:29.507Z,96789.98
2022-08-08T19:20:17.514Z,96788.64
2022-08-08T19:22:47.873Z,96791.88
2022-08-08T19:26:01.223Z,96793.13
2022-08-08T19:28:17.847Z,96800.69
2022-08-08T19:31:03.266Z,96798.45
2022-08-08T19:33:51.601Z,96803.86
2022-08-08T19:36:27.457Z,96806.48
2022-08-08T19:38:57.200Z,96808.80
2022-08-08T19:41:33.582Z,96805.88
2022-08-08T19:44:12.658Z,96805.27
2022-08-08T19:46:50.603Z,96808.10
2022-08-08T19:49:19.636Z,96810.49
2022-08-08T19:51:49.104Z,96815.13
2022-08-08T19:54:17.508Z,96818.05
2022-08-08T19:56:48.629Z,96824.77
2022-08-08T19:59:18.839Z,96828.54
2022-08-08T20:02:03.552Z,96830.84
2022-08-08T20:04:34.805Z,96830.46
2022-08-08T20:08:29.786Z,96826.41
2022-08-08T20:09:56.146Z,96820.77
2022-08-08T20:12:32.464Z,96822.10
2022-08-08T20:15:15.163Z,96819.00
2022-08-08T20:17:47.861Z,96818.45
2022-08-08T20:20:20.533Z,96819.77
2022-08-08T20:22:54.024Z,96821.48
2022-08-08T20:25:29.810Z,96827.18
2022-08-08T20:28:06.401Z,96824.41
2022-08-08T20:30:55.699Z,96821.03
2022-08-08T20:35:57.850Z,96826.00
2022-08-08T20:38:32.777Z,96830.23
2022-08-08T20:41:17.751Z,96836.86
2022-08-08T20:43:49.760Z,96845.33
2022-08-08T20:46:25.309Z,96850.02
2022-08-08T20:48:58.229Z,96847.36
2022-08-08T20:51:32.410Z,96847.67
2022-08-08T20:54:04.840Z,96847.84
2022-08-08T20:57:04.682Z,96853.05
2022-08-08T20:59:29.276Z,96858.27
2022-08-08T21:02:07.654Z,96862.48
2022-08-08T21:04:38.177Z,96862.45
2022-08-08T21:07:08.141Z,96862.36
2022-08-08T21:09:48.658Z,96865.48
2022-08-08T21:12:33.050Z,96870.27
2022-08-08T21:15:09.645Z,96869.83
2022-08-08T21:17:38.308Z,96862.97
2022-08-08T21:20:09.661Z,96858.87
2022-08-08T21:22:38.050Z,96856.25
2022-08-08T21:25:10.604Z,96850.73
2022-08-08T21:28:09.271Z,96837.56
2022-08-08T21:30:30.364Z,96834.72
2022-08-08T21:32:59.160Z,96837.45
2022-08-08T21:36:16.237Z,96832.19
2022-08-08T21:38:18.257Z,96826.41
2022-08-08T21:40:54.969Z,96821.67
2022-08-08T21:43:33.571Z,96822.10
2022-08-08T21:48:06.186Z,96824.16
2022-08-08T21:48:54.538Z,96825.69
2022-08-08T21:54:16.871Z,96831.68
2022-08-08T21:54:51.772Z,96823.35
2022-08-08T21:57:09.518Z,96817.90
2022-08-08T22:00:01.982Z,96810.71
2022-08-08T22:02:26.632Z,96803.77
2022-08-08T22:04:58.859Z,96793.38
2022-08-08T22:07:39.724Z,96782.10
2022-08-08T22:10:18.434Z,96771.56
2022-08-08T22:13:18.922Z,96758.83
2022-08-08T22:15:58.691Z,96756.69
2022-08-08T22:18:33.879Z,96757.50
2022-08-08T22:21:10.721Z,96754.69
2022-08-08T22:23:50.323Z,96747.70
2022-08-08T22:26:28.806Z,96740.92
2022-08-08T22:29:13.254Z,96728.55
2022-08-08T22:32:01.830Z,96726.23
2022-08-08T22:34:39.170Z,96729.55
2022-08-08T22:37:27.792Z,96725.79
2022-08-08T22:40:00.832Z,96723.98
2022-08-08T22:42:31.893Z,96715.54
2022-08-08T22:45:12.610Z,96711.83
2022-08-08T22:47:47.385Z,96706.31
2022-08-08T22:50:25.799Z,96701.73
2022-08-08T22:54:29.335Z,96696.02
2022-08-08T22:55:58.589Z,96695.48
2022-08-08T22:58:33.012Z,96696.46
2022-08-08T23:01:26.449Z,96692.13
2022-08-08T23:03:57.098Z,96690.84
2022-08-08T23:06:27.044Z,96690.20
2022-08-08T23:08:59.002Z,96682.96
2022-08-08T23:12:17.914Z,96685.30
2022-08-08T23:14:21.489Z,96682.11
2022-08-08T23:16:54.564Z,96680.27
2022-08-08T23:19:32.279Z,96673.48
2022-08-08T23:22:04.630Z,96664.23
2022-08-08T23:24:36.630Z,96661.67
2022-08-08T23:27:17.167Z,96659.80
2022-08-08T23:30:00.226Z,96647.30
2022-08-08T23:32:28.587Z,96641.22
2022-08-08T23:34:59.021Z,96632.25
2022-08-08T23:38:00.833Z,96619.46
2022-08-08T23:40:21.861Z,96620.58
2022-08-08T23:42:51.462Z,96636.39
2022-08-08T23:48:59.779Z,96657.10
2022-08-08T23:49:01.623Z,96660.52
2022-08-08T23:50:58.107Z,96676.10
2022-08-08T23:54:05.890Z,96686.34
2022-08-08T23:56:24.085Z,96689.36
2022-08-08T23:59:02.380Z,96701.55
